sensor_id;sensor_type;location;lat;lon;timestamp;P1;durP1;ratioP1;P2;durP2;ratioP2
7841;SDS011;3966;51.052;13.820;2023-06-19T00:02:09;0.00;;;0.00;;
7841;SDS011;3966;51.052;13.820;2023-06-19T00:04:34;0.00;;;0.00;;
7841;SDS011;3966;51.052;13.820;2023-06-19T00:07:00;0.00;;;0.00;;
7841;SDS011;3966;51.052;13.820;2023-06-19T00:09:26;0.00;;;0.00;;
7841;SDS011;3966;51.052;13.820;2023-06-19T00:11:52;0.00;;;0.00;;
7841;SDS011;3966;51.052;13.820;2023-06-19T00:14:17;0.10;;;0.10;;
7841;SDS011;3966;51.052;13.820;2023-06-19T00:16:43;0.10;;;0.10;;
7841;SDS011;3966;51.052;13.820;2023-06-19T00:19:09;0.10;;;0.10;;
7841;SDS011;3966;51.052;13.820;2023-06-19T00:21:36;0.10;;;0.10;;
7841;SDS011;3966;51.052;13.820;2023-06-19T00:24:03;0.00;;;0.00;;
7841;SDS011;3966;51.052;13.820;2023-06-19T00:26:29;0.10;;;0.10;;
7841;SDS011;3966;51.052;13.820;2023-06-19T00:28:55;0.10;;;0.10;;
7841;SDS011;3966;51.052;13.820;2023-06-19T00:31:21;0.10;;;0.10;;
7841;SDS011;3966;51.052;13.820;2023-06-19T00:33:46;0.00;;;0.00;;
7841;SDS011;3966;51.052;13.820;2023-06-19T00:36:16;0.00;;;0.00;;
7841;SDS011;3966;51.052;13.820;2023-06-19T00:38:46;0.00;;;0.00;;
7841;SDS011;3966;51.052;13.820;2023-06-19T00:41:12;0.00;;;0.00;;
7841;SDS011;3966;51.052;13.820;2023-06-19T00:43:40;0.00;;;0.00;;
7841;SDS011;3966;51.052;13.820;2023-06-19T00:46:06;0.10;;;0.10;;
7841;SDS011;3966;51.052;13.820;2023-06-19T00:48:32;0.10;;;0.10;;
7841;SDS011;3966;51.052;13.820;2023-06-19T00:50:59;0.10;;;0.10;;
7841;SDS011;3966;51.052;13.820;2023-06-19T00:53:25;0.10;;;0.10;;
7841;SDS011;3966;51.052;13.820;2023-06-19T00:55:52;0.10;;;0.10;;
7841;SDS011;3966;51.052;13.820;2023-06-19T00:58:20;0.10;;;0.10;;
7841;SDS011;3966;51.052;13.820;2023-06-19T01:00:46;0.10;;;0.10;;
7841;SDS011;3966;51.052;13.820;2023-06-19T01:03:13;0.10;;;0.10;;
7841;SDS011;3966;51.052;13.820;2023-06-19T01:05:39;0.00;;;0.00;;
7841;SDS011;3966;51.052;13.820;2023-06-19T01:08:17;0.10;;;0.10;;
7841;SDS011;3966;51.052;13.820;2023-06-19T01:11:08;0.10;;;0.10;;
7841;SDS011;3966;51.052;13.820;2023-06-19T01:16:13;0.00;;;0.00;;
7841;SDS011;3966;51.052;13.820;2023-06-19T01:18:41;0.00;;;0.00;;
7841;SDS011;3966;51.052;13.820;2023-06-19T01:21:14;0.10;;;0.10;;
7841;SDS011;3966;51.052;13.820;2023-06-19T01:23:41;0.00;;;0.00;;
7841;SDS011;3966;51.052;13.820;2023-06-19T01:26:08;0.00;;;0.00;;
7841;SDS011;3966;51.052;13.820;2023-06-19T01:28:37;0.00;;;0.00;;
7841;SDS011;3966;51.052;13.820;2023-06-19T01:31:28;0.00;;;0.00;;
7841;SDS011;3966;51.052;13.820;2023-06-19T01:33:56;0.00;;;0.00;;
7841;SDS011;3966;51.052;13.820;2023-06-19T01:36:23;0.05;;;0.05;;
7841;SDS011;3966;51.052;13.820;2023-06-19T01:38:50;0.10;;;0.10;;
7841;SDS011;3966;51.052;13.820;2023-06-19T01:41:16;0.10;;;0.10;;
7841;SDS011;3966;51.052;13.820;2023-06-19T01:43:45;0.00;;;0.00;;
7841;SDS011;3966;51.052;13.820;2023-06-19T01:46:11;0.00;;;0.00;;
7841;SDS011;3966;51.052;13.820;2023-06-19T01:48:37;0.10;;;0.10;;
7841;SDS011;3966;51.052;13.820;2023-06-19T01:51:03;0.00;;;0.00;;
7841;SDS011;3966;51.052;13.820;2023-06-19T01:53:32;0.10;;;0.10;;
7841;SDS011;3966;51.052;13.820;2023-06-19T01:55:59;0.00;;;0.00;;
7841;SDS011;3966;51.052;13.820;2023-06-19T01:58:25;0.00;;;0.00;;
7841;SDS011;3966;51.052;13.820;2023-06-19T02:00:51;0.00;;;0.00;;
7841;SDS011;3966;51.052;13.820;2023-06-19T02:03:17;0.03;;;0.03;;
7841;SDS011;3966;51.052;13.820;2023-06-19T02:05:42;0.10;;;0.10;;
7841;SDS011;3966;51.052;13.820;2023-06-19T02:08:08;0.00;;;0.00;;
7841;SDS011;3966;51.052;13.820;2023-06-19T02:10:34;0.08;;;0.08;;
7841;SDS011;3966;51.052;13.820;2023-06-19T02:13:00;0.00;;;0.00;;
7841;SDS011;3966;51.052;13.820;2023-06-19T02:15:25;0.10;;;0.10;;
7841;SDS011;3966;51.052;13.820;2023-06-19T02:17:51;0.10;;;0.10;;
7841;SDS011;3966;51.052;13.820;2023-06-19T02:20:23;0.00;;;0.00;;
7841;SDS011;3966;51.052;13.820;2023-06-19T02:22:49;0.00;;;0.00;;
7841;SDS011;3966;51.052;13.820;2023-06-19T02:25:16;0.00;;;0.00;;
7841;SDS011;3966;51.052;13.820;2023-06-19T02:27:41;0.00;;;0.00;;
7841;SDS011;3966;51.052;13.820;2023-06-19T02:30:07;0.00;;;0.00;;
7841;SDS011;3966;51.052;13.820;2023-06-19T02:32:33;0.00;;;0.00;;
7841;SDS011;3966;51.052;13.820;2023-06-19T02:34:59;0.00;;;0.00;;
7841;SDS011;3966;51.052;13.820;2023-06-19T02:37:24;0.10;;;0.10;;
7841;SDS011;3966;51.052;13.820;2023-06-19T02:39:50;0.00;;;0.00;;
7841;SDS011;3966;51.052;13.820;2023-06-19T02:42:16;0.00;;;0.00;;
7841;SDS011;3966;51.052;13.820;2023-06-19T02:44:41;0.00;;;0.00;;
7841;SDS011;3966;51.052;13.820;2023-06-19T02:47:10;0.00;;;0.00;;
7841;SDS011;3966;51.052;13.820;2023-06-19T02:49:36;0.00;;;0.00;;
7841;SDS011;3966;51.052;13.820;2023-06-19T02:52:02;0.10;;;0.10;;
7841;SDS011;3966;51.052;13.820;2023-06-19T02:54:27;0.10;;;0.10;;
7841;SDS011;3966;51.052;13.820;2023-06-19T02:56:53;0.00;;;0.00;;
7841;SDS011;3966;51.052;13.820;2023-06-19T02:59:19;0.10;;;0.10;;
7841;SDS011;3966;51.052;13.820;2023-06-19T03:01:44;0.00;;;0.00;;
7841;SDS011;3966;51.052;13.820;2023-06-19T03:04:10;0.00;;;0.00;;
7841;SDS011;3966;51.052;13.820;2023-06-19T03:06:35;0.00;;;0.00;;
7841;SDS011;3966;51.052;13.820;2023-06-19T03:09:07;0.00;;;0.00;;
7841;SDS011;3966;51.052;13.820;2023-06-19T03:11:40;0.10;;;0.10;;
7841;SDS011;3966;51.052;13.820;2023-06-19T03:14:06;0.10;;;0.10;;
7841;SDS011;3966;51.052;13.820;2023-06-19T03:16:33;0.00;;;0.00;;
7841;SDS011;3966;51.052;13.820;2023-06-19T03:18:59;0.00;;;0.00;;
7841;SDS011;3966;51.052;13.820;2023-06-19T03:21:25;0.00;;;0.00;;
7841;SDS011;3966;51.052;13.820;2023-06-19T03:23:51;0.00;;;0.00;;
7841;SDS011;3966;51.052;13.820;2023-06-19T03:26:20;0.00;;;0.00;;
7841;SDS011;3966;51.052;13.820;2023-06-19T03:28:46;0.00;;;0.00;;
7841;SDS011;3966;51.052;13.820;2023-06-19T03:31:12;0.10;;;0.10;;
7841;SDS011;3966;51.052;13.820;2023-06-19T03:33:38;0.10;;;0.10;;
7841;SDS011;3966;51.052;13.820;2023-06-19T03:36:04;0.00;;;0.00;;
7841;SDS011;3966;51.052;13.820;2023-06-19T03:38:30;0.00;;;0.00;;
7841;SDS011;3966;51.052;13.820;2023-06-19T03:40:56;0.00;;;0.00;;
7841;SDS011;3966;51.052;13.820;2023-06-19T03:43:22;0.00;;;0.00;;
7841;SDS011;3966;51.052;13.820;2023-06-19T03:45:47;0.00;;;0.00;;
7841;SDS011;3966;51.052;13.820;2023-06-19T03:48:13;0.10;;;0.10;;
7841;SDS011;3966;51.052;13.820;2023-06-19T03:50:40;0.10;;;0.10;;
7841;SDS011;3966;51.052;13.820;2023-06-19T03:53:06;0.08;;;0.08;;
7841;SDS011;3966;51.052;13.820;2023-06-19T03:55:32;0.10;;;0.10;;
7841;SDS011;3966;51.052;13.820;2023-06-19T03:57:58;0.10;;;0.10;;
7841;SDS011;3966;51.052;13.820;2023-06-19T04:00:23;0.00;;;0.00;;
7841;SDS011;3966;51.052;13.820;2023-06-19T04:02:49;0.10;;;0.10;;
7841;SDS011;3966;51.052;13.820;2023-06-19T04:05:15;0.10;;;0.10;;
7841;SDS011;3966;51.052;13.820;2023-06-19T04:07:41;0.10;;;0.10;;
7841;SDS011;3966;51.052;13.820;2023-06-19T04:10:07;0.00;;;0.00;;
7841;SDS011;3966;51.052;13.820;2023-06-19T04:12:33;0.00;;;0.00;;
7841;SDS011;3966;51.052;13.820;2023-06-19T04:14:58;0.00;;;0.00;;
7841;SDS011;3966;51.052;13.820;2023-06-19T04:17:24;0.00;;;0.00;;
7841;SDS011;3966;51.052;13.820;2023-06-19T04:19:49;0.10;;;0.10;;
7841;SDS011;3966;51.052;13.820;2023-06-19T04:22:15;0.00;;;0.00;;
7841;SDS011;3966;51.052;13.820;2023-06-19T04:24:41;0.10;;;0.10;;
7841;SDS011;3966;51.052;13.820;2023-06-19T04:27:06;0.10;;;0.10;;
7841;SDS011;3966;51.052;13.820;2023-06-19T04:29:35;0.00;;;0.00;;
7841;SDS011;3966;51.052;13.820;2023-06-19T04:32:00;0.00;;;0.00;;
7841;SDS011;3966;51.052;13.820;2023-06-19T04:34:28;0.00;;;0.00;;
7841;SDS011;3966;51.052;13.820;2023-06-19T04:36:54;0.00;;;0.00;;
7841;SDS011;3966;51.052;13.820;2023-06-19T04:39:23;0.00;;;0.00;;
7841;SDS011;3966;51.052;13.820;2023-06-19T04:41:49;0.10;;;0.10;;
7841;SDS011;3966;51.052;13.820;2023-06-19T04:44:15;0.05;;;0.05;;
7841;SDS011;3966;51.052;13.820;2023-06-19T04:46:40;0.00;;;0.00;;
7841;SDS011;3966;51.052;13.820;2023-06-19T04:49:09;0.10;;;0.10;;
7841;SDS011;3966;51.052;13.820;2023-06-19T04:51:35;0.10;;;0.10;;
7841;SDS011;3966;51.052;13.820;2023-06-19T04:54:01;0.10;;;0.10;;
7841;SDS011;3966;51.052;13.820;2023-06-19T04:56:27;0.00;;;0.00;;
7841;SDS011;3966;51.052;13.820;2023-06-19T04:58:53;0.00;;;0.00;;
7841;SDS011;3966;51.052;13.820;2023-06-19T05:01:24;0.00;;;0.00;;
7841;SDS011;3966;51.052;13.820;2023-06-19T05:03:53;0.00;;;0.00;;
7841;SDS011;3966;51.052;13.820;2023-06-19T05:06:23;0.00;;;0.00;;
7841;SDS011;3966;51.052;13.820;2023-06-19T05:08:49;0.10;;;0.10;;
7841;SDS011;3966;51.052;13.820;2023-06-19T05:11:14;0.00;;;0.00;;
7841;SDS011;3966;51.052;13.820;2023-06-19T05:13:40;0.05;;;0.05;;
7841;SDS011;3966;51.052;13.820;2023-06-19T05:16:06;0.00;;;0.00;;
7841;SDS011;3966;51.052;13.820;2023-06-19T05:18:31;0.10;;;0.10;;
7841;SDS011;3966;51.052;13.820;2023-06-19T05:20:57;0.10;;;0.10;;
7841;SDS011;3966;51.052;13.820;2023-06-19T05:23:23;0.00;;;0.00;;
7841;SDS011;3966;51.052;13.820;2023-06-19T05:25:48;0.00;;;0.00;;
7841;SDS011;3966;51.052;13.820;2023-06-19T05:28:14;0.00;;;0.00;;
7841;SDS011;3966;51.052;13.820;2023-06-19T05:30:39;0.00;;;0.00;;
7841;SDS011;3966;51.052;13.820;2023-06-19T05:33:05;0.00;;;0.00;;
7841;SDS011;3966;51.052;13.820;2023-06-19T05:35:31;0.00;;;0.00;;
7841;SDS011;3966;51.052;13.820;2023-06-19T05:37:57;0.00;;;0.00;;
7841;SDS011;3966;51.052;13.820;2023-06-19T05:42:50;0.00;;;0.00;;
7841;SDS011;3966;51.052;13.820;2023-06-19T05:45:16;0.00;;;0.00;;
7841;SDS011;3966;51.052;13.820;2023-06-19T05:47:42;0.10;;;0.10;;
7841;SDS011;3966;51.052;13.820;2023-06-19T05:50:08;0.03;;;0.03;;
7841;SDS011;3966;51.052;13.820;2023-06-19T05:52:34;0.00;;;0.00;;
7841;SDS011;3966;51.052;13.820;2023-06-19T05:54:59;0.00;;;0.00;;
7841;SDS011;3966;51.052;13.820;2023-06-19T05:57:25;0.10;;;0.10;;
7841;SDS011;3966;51.052;13.820;2023-06-19T05:59:51;0.03;;;0.03;;
7841;SDS011;3966;51.052;13.820;2023-06-19T06:02:18;0.05;;;0.05;;
7841;SDS011;3966;51.052;13.820;2023-06-19T06:04:45;0.00;;;0.00;;
7841;SDS011;3966;51.052;13.820;2023-06-19T06:07:11;0.10;;;0.10;;
7841;SDS011;3966;51.052;13.820;2023-06-19T06:09:37;0.00;;;0.00;;
7841;SDS011;3966;51.052;13.820;2023-06-19T06:12:03;0.08;;;0.08;;
7841;SDS011;3966;51.052;13.820;2023-06-19T06:14:29;0.10;;;0.10;;
7841;SDS011;3966;51.052;13.820;2023-06-19T06:16:55;0.10;;;0.10;;
7841;SDS011;3966;51.052;13.820;2023-06-19T06:19:23;0.00;;;0.00;;
7841;SDS011;3966;51.052;13.820;2023-06-19T06:21:49;0.10;;;0.10;;
7841;SDS011;3966;51.052;13.820;2023-06-19T06:24:15;0.10;;;0.10;;
7841;SDS011;3966;51.052;13.820;2023-06-19T06:26:41;0.10;;;0.10;;
7841;SDS011;3966;51.052;13.820;2023-06-19T06:29:07;0.00;;;0.00;;
7841;SDS011;3966;51.052;13.820;2023-06-19T06:31:33;0.00;;;0.00;;
7841;SDS011;3966;51.052;13.820;2023-06-19T06:34:00;0.10;;;0.10;;
7841;SDS011;3966;51.052;13.820;2023-06-19T06:36:25;0.00;;;0.00;;
7841;SDS011;3966;51.052;13.820;2023-06-19T06:38:51;0.00;;;0.00;;
7841;SDS011;3966;51.052;13.820;2023-06-19T06:41:17;0.10;;;0.10;;
7841;SDS011;3966;51.052;13.820;2023-06-19T06:43:42;0.00;;;0.00;;
7841;SDS011;3966;51.052;13.820;2023-06-19T06:46:08;0.00;;;0.00;;
7841;SDS011;3966;51.052;13.820;2023-06-19T06:48:35;0.00;;;0.00;;
7841;SDS011;3966;51.052;13.820;2023-06-19T06:51:04;0.10;;;0.10;;
7841;SDS011;3966;51.052;13.820;2023-06-19T06:53:30;0.10;;;0.10;;
7841;SDS011;3966;51.052;13.820;2023-06-19T06:55:59;0.05;;;0.05;;
7841;SDS011;3966;51.052;13.820;2023-06-19T06:58:25;0.10;;;0.10;;
7841;SDS011;3966;51.052;13.820;2023-06-19T07:00:51;0.10;;;0.10;;
7841;SDS011;3966;51.052;13.820;2023-06-19T07:03:17;0.00;;;0.00;;
7841;SDS011;3966;51.052;13.820;2023-06-19T07:05:43;0.10;;;0.10;;
7841;SDS011;3966;51.052;13.820;2023-06-19T07:08:09;0.05;;;0.05;;
7841;SDS011;3966;51.052;13.820;2023-06-19T07:10:35;0.00;;;0.00;;
7841;SDS011;3966;51.052;13.820;2023-06-19T07:13:01;0.00;;;0.00;;
7841;SDS011;3966;51.052;13.820;2023-06-19T07:15:26;0.00;;;0.00;;
7841;SDS011;3966;51.052;13.820;2023-06-19T07:17:52;0.00;;;0.00;;
7841;SDS011;3966;51.052;13.820;2023-06-19T07:20:17;0.00;;;0.00;;
7841;SDS011;3966;51.052;13.820;2023-06-19T07:22:43;0.00;;;0.00;;
7841;SDS011;3966;51.052;13.820;2023-06-19T07:25:10;0.10;;;0.10;;
7841;SDS011;3966;51.052;13.820;2023-06-19T07:27:36;0.10;;;0.10;;
7841;SDS011;3966;51.052;13.820;2023-06-19T07:30:02;0.00;;;0.00;;
7841;SDS011;3966;51.052;13.820;2023-06-19T07:32:28;0.08;;;0.08;;
7841;SDS011;3966;51.052;13.820;2023-06-19T07:34:54;0.00;;;0.00;;
7841;SDS011;3966;51.052;13.820;2023-06-19T07:37:20;0.00;;;0.00;;
7841;SDS011;3966;51.052;13.820;2023-06-19T07:39:49;0.00;;;0.00;;
7841;SDS011;3966;51.052;13.820;2023-06-19T07:42:16;0.00;;;0.00;;
7841;SDS011;3966;51.052;13.820;2023-06-19T07:44:43;0.10;;;0.10;;
7841;SDS011;3966;51.052;13.820;2023-06-19T07:47:09;0.10;;;0.10;;
7841;SDS011;3966;51.052;13.820;2023-06-19T07:49:35;0.10;;;0.10;;
7841;SDS011;3966;51.052;13.820;2023-06-19T07:52:01;0.10;;;0.10;;
7841;SDS011;3966;51.052;13.820;2023-06-19T07:54:27;0.10;;;0.10;;
7841;SDS011;3966;51.052;13.820;2023-06-19T07:56:53;0.10;;;0.10;;
7841;SDS011;3966;51.052;13.820;2023-06-19T07:59:22;0.00;;;0.00;;
7841;SDS011;3966;51.052;13.820;2023-06-19T08:01:47;0.10;;;0.10;;
7841;SDS011;3966;51.052;13.820;2023-06-19T08:04:16;0.00;;;0.00;;
7841;SDS011;3966;51.052;13.820;2023-06-19T08:06:45;0.00;;;0.00;;
7841;SDS011;3966;51.052;13.820;2023-06-19T08:09:10;0.10;;;0.10;;
7841;SDS011;3966;51.052;13.820;2023-06-19T08:11:36;0.10;;;0.10;;
7841;SDS011;3966;51.052;13.820;2023-06-19T08:14:06;0.00;;;0.00;;
7841;SDS011;3966;51.052;13.820;2023-06-19T08:16:32;0.00;;;0.00;;
7841;SDS011;3966;51.052;13.820;2023-06-19T08:18:58;0.10;;;0.10;;
7841;SDS011;3966;51.052;13.820;2023-06-19T08:21:24;0.00;;;0.00;;
7841;SDS011;3966;51.052;13.820;2023-06-19T08:23:51;0.10;;;0.10;;
7841;SDS011;3966;51.052;13.820;2023-06-19T08:26:17;0.10;;;0.10;;
7841;SDS011;3966;51.052;13.820;2023-06-19T08:28:46;0.10;;;0.10;;
7841;SDS011;3966;51.052;13.820;2023-06-19T08:31:12;0.10;;;0.10;;
7841;SDS011;3966;51.052;13.820;2023-06-19T08:33:38;0.10;;;0.10;;
7841;SDS011;3966;51.052;13.820;2023-06-19T08:36:20;0.10;;;0.10;;
7841;SDS011;3966;51.052;13.820;2023-06-19T08:38:47;0.10;;;0.10;;
7841;SDS011;3966;51.052;13.820;2023-06-19T08:41:17;0.10;;;0.10;;
7841;SDS011;3966;51.052;13.820;2023-06-19T08:43:53;0.10;;;0.10;;
7841;SDS011;3966;51.052;13.820;2023-06-19T08:46:20;0.00;;;0.00;;
7841;SDS011;3966;51.052;13.820;2023-06-19T08:48:47;0.10;;;0.10;;
7841;SDS011;3966;51.052;13.820;2023-06-19T08:51:13;0.00;;;0.00;;
7841;SDS011;3966;51.052;13.820;2023-06-19T08:53:46;0.00;;;0.00;;
7841;SDS011;3966;51.052;13.820;2023-06-19T08:56:13;0.10;;;0.10;;
7841;SDS011;3966;51.052;13.820;2023-06-19T08:58:39;0.10;;;0.10;;
7841;SDS011;3966;51.052;13.820;2023-06-19T09:01:05;0.10;;;0.10;;
7841;SDS011;3966;51.052;13.820;2023-06-19T09:03:31;0.10;;;0.10;;
7841;SDS011;3966;51.052;13.820;2023-06-19T09:06:08;0.00;;;0.00;;
7841;SDS011;3966;51.052;13.820;2023-06-19T09:11:03;0.00;;;0.00;;
7841;SDS011;3966;51.052;13.820;2023-06-19T09:13:30;0.10;;;0.10;;
7841;SDS011;3966;51.052;13.820;2023-06-19T09:15:57;0.10;;;0.10;;
7841;SDS011;3966;51.052;13.820;2023-06-19T09:18:31;0.10;;;0.10;;
7841;SDS011;3966;51.052;13.820;2023-06-19T09:21:16;0.10;;;0.10;;
7841;SDS011;3966;51.052;13.820;2023-06-19T09:23:48;0.10;;;0.10;;
7841;SDS011;3966;51.052;13.820;2023-06-19T09:26:16;0.00;;;0.00;;
7841;SDS011;3966;51.052;13.820;2023-06-19T09:28:44;0.10;;;0.10;;
7841;SDS011;3966;51.052;13.820;2023-06-19T09:31:11;0.10;;;0.10;;
7841;SDS011;3966;51.052;13.820;2023-06-19T09:33:38;0.10;;;0.10;;
7841;SDS011;3966;51.052;13.820;2023-06-19T09:36:05;0.00;;;0.00;;
7841;SDS011;3966;51.052;13.820;2023-06-19T09:38:35;0.10;;;0.10;;
7841;SDS011;3966;51.052;13.820;2023-06-19T09:41:06;0.10;;;0.10;;
7841;SDS011;3966;51.052;13.820;2023-06-19T09:43:44;0.10;;;0.10;;
7841;SDS011;3966;51.052;13.820;2023-06-19T09:46:22;0.10;;;0.10;;
7841;SDS011;3966;51.052;13.820;2023-06-19T09:48:51;0.00;;;0.00;;
7841;SDS011;3966;51.052;13.820;2023-06-19T09:51:20;0.00;;;0.00;;
7841;SDS011;3966;51.052;13.820;2023-06-19T09:54:01;0.10;;;0.10;;
7841;SDS011;3966;51.052;13.820;2023-06-19T09:56:30;0.00;;;0.00;;
7841;SDS011;3966;51.052;13.820;2023-06-19T09:58:57;0.10;;;0.10;;
7841;SDS011;3966;51.052;13.820;2023-06-19T10:01:25;0.10;;;0.10;;
7841;SDS011;3966;51.052;13.820;2023-06-19T10:04:05;0.00;;;0.00;;
7841;SDS011;3966;51.052;13.820;2023-06-19T10:06:32;0.00;;;0.00;;
7841;SDS011;3966;51.052;13.820;2023-06-19T10:09:07;0.00;;;0.00;;
7841;SDS011;3966;51.052;13.820;2023-06-19T10:11:49;0.10;;;0.10;;
7841;SDS011;3966;51.052;13.820;2023-06-19T10:14:16;0.10;;;0.10;;
7841;SDS011;3966;51.052;13.820;2023-06-19T10:16:44;0.10;;;0.10;;
7841;SDS011;3966;51.052;13.820;2023-06-19T10:19:14;0.10;;;0.10;;
7841;SDS011;3966;51.052;13.820;2023-06-19T10:21:45;0.10;;;0.10;;
7841;SDS011;3966;51.052;13.820;2023-06-19T10:24:18;0.00;;;0.00;;
7841;SDS011;3966;51.052;13.820;2023-06-19T10:27:00;0.05;;;0.05;;
7841;SDS011;3966;51.052;13.820;2023-06-19T10:29:37;0.10;;;0.10;;
7841;SDS011;3966;51.052;13.820;2023-06-19T10:32:03;0.00;;;0.00;;
7841;SDS011;3966;51.052;13.820;2023-06-19T10:34:35;0.10;;;0.10;;
7841;SDS011;3966;51.052;13.820;2023-06-19T10:37:01;0.10;;;0.10;;
7841;SDS011;3966;51.052;13.820;2023-06-19T10:39:27;0.00;;;0.00;;
7841;SDS011;3966;51.052;13.820;2023-06-19T10:41:53;0.10;;;0.10;;
7841;SDS011;3966;51.052;13.820;2023-06-19T10:44:23;0.10;;;0.10;;
7841;SDS011;3966;51.052;13.820;2023-06-19T10:46:52;0.10;;;0.10;;
7841;SDS011;3966;51.052;13.820;2023-06-19T10:49:18;0.10;;;0.10;;
7841;SDS011;3966;51.052;13.820;2023-06-19T10:51:44;0.10;;;0.10;;
7841;SDS011;3966;51.052;13.820;2023-06-19T10:54:09;0.10;;;0.10;;
7841;SDS011;3966;51.052;13.820;2023-06-19T10:56:35;0.10;;;0.10;;
7841;SDS011;3966;51.052;13.820;2023-06-19T10:59:08;0.10;;;0.10;;
7841;SDS011;3966;51.052;13.820;2023-06-19T11:01:37;0.10;;;0.10;;
7841;SDS011;3966;51.052;13.820;2023-06-19T11:04:08;0.10;;;0.10;;
7841;SDS011;3966;51.052;13.820;2023-06-19T11:06:35;0.10;;;0.10;;
7841;SDS011;3966;51.052;13.820;2023-06-19T11:09:03;0.10;;;0.10;;
7841;SDS011;3966;51.052;13.820;2023-06-19T11:11:43;0.10;;;0.10;;
7841;SDS011;3966;51.052;13.820;2023-06-19T11:14:19;0.10;;;0.10;;
7841;SDS011;3966;51.052;13.820;2023-06-19T11:19:15;0.10;;;0.10;;
7841;SDS011;3966;51.052;13.820;2023-06-19T11:21:49;0.10;;;0.10;;
7841;SDS011;3966;51.052;13.820;2023-06-19T11:24:19;0.10;;;0.10;;
7841;SDS011;3966;51.052;13.820;2023-06-19T11:26:51;0.10;;;0.10;;
7841;SDS011;3966;51.052;13.820;2023-06-19T11:29:23;0.10;;;0.10;;
7841;SDS011;3966;51.052;13.820;2023-06-19T11:32:07;0.10;;;0.10;;
7841;SDS011;3966;51.052;13.820;2023-06-19T11:34:35;0.10;;;0.10;;
7841;SDS011;3966;51.052;13.820;2023-06-19T11:37:14;0.10;;;0.10;;
7841;SDS011;3966;51.052;13.820;2023-06-19T11:39:42;0.10;;;0.10;;
7841;SDS011;3966;51.052;13.820;2023-06-19T11:42:09;0.10;;;0.10;;
7841;SDS011;3966;51.052;13.820;2023-06-19T11:44:35;0.10;;;0.10;;
7841;SDS011;3966;51.052;13.820;2023-06-19T11:47:01;0.10;;;0.10;;
7841;SDS011;3966;51.052;13.820;2023-06-19T11:49:28;0.10;;;0.10;;
7841;SDS011;3966;51.052;13.820;2023-06-19T11:52:03;0.10;;;0.10;;
7841;SDS011;3966;51.052;13.820;2023-06-19T11:54:29;0.10;;;0.10;;
7841;SDS011;3966;51.052;13.820;2023-06-19T11:56:55;0.10;;;0.10;;
7841;SDS011;3966;51.052;13.820;2023-06-19T11:59:21;0.10;;;0.10;;
7841;SDS011;3966;51.052;13.820;2023-06-19T12:01:46;0.10;;;0.10;;
7841;SDS011;3966;51.052;13.820;2023-06-19T12:04:12;0.10;;;0.10;;
7841;SDS011;3966;51.052;13.820;2023-06-19T12:06:38;0.15;;;0.15;;
7841;SDS011;3966;51.052;13.820;2023-06-19T12:09:04;0.17;;;0.17;;
7841;SDS011;3966;51.052;13.820;2023-06-19T12:11:30;0.10;;;0.10;;
7841;SDS011;3966;51.052;13.820;2023-06-19T12:13:56;0.10;;;0.10;;
7841;SDS011;3966;51.052;13.820;2023-06-19T12:16:23;0.10;;;0.10;;
7841;SDS011;3966;51.052;13.820;2023-06-19T12:18:58;0.10;;;0.10;;
7841;SDS011;3966;51.052;13.820;2023-06-19T12:21:24;0.10;;;0.10;;
7841;SDS011;3966;51.052;13.820;2023-06-19T12:23:49;0.10;;;0.10;;
7841;SDS011;3966;51.052;13.820;2023-06-19T12:26:15;0.20;;;0.20;;
7841;SDS011;3966;51.052;13.820;2023-06-19T12:28:41;0.20;;;0.20;;
7841;SDS011;3966;51.052;13.820;2023-06-19T12:31:08;0.10;;;0.10;;
7841;SDS011;3966;51.052;13.820;2023-06-19T12:33:34;0.20;;;0.20;;
7841;SDS011;3966;51.052;13.820;2023-06-19T12:36:02;0.10;;;0.10;;
7841;SDS011;3966;51.052;13.820;2023-06-19T12:38:28;0.10;;;0.10;;
7841;SDS011;3966;51.052;13.820;2023-06-19T12:40:53;0.13;;;0.13;;
7841;SDS011;3966;51.052;13.820;2023-06-19T12:43:19;0.20;;;0.20;;
7841;SDS011;3966;51.052;13.820;2023-06-19T12:45:44;0.20;;;0.20;;
7841;SDS011;3966;51.052;13.820;2023-06-19T12:48:11;0.20;;;0.20;;
7841;SDS011;3966;51.052;13.820;2023-06-19T12:50:36;0.20;;;0.20;;
7841;SDS011;3966;51.052;13.820;2023-06-19T12:53:02;0.10;;;0.10;;
7841;SDS011;3966;51.052;13.820;2023-06-19T12:55:28;0.10;;;0.10;;
7841;SDS011;3966;51.052;13.820;2023-06-19T12:57:53;0.10;;;0.10;;
7841;SDS011;3966;51.052;13.820;2023-06-19T13:00:19;0.10;;;0.10;;
7841;SDS011;3966;51.052;13.820;2023-06-19T13:02:44;0.10;;;0.10;;
7841;SDS011;3966;51.052;13.820;2023-06-19T13:05:11;0.10;;;0.10;;
7841;SDS011;3966;51.052;13.820;2023-06-19T13:07:38;0.20;;;0.20;;
7841;SDS011;3966;51.052;13.820;2023-06-19T13:10:04;0.10;;;0.10;;
7841;SDS011;3966;51.052;13.820;2023-06-19T13:12:31;0.20;;;0.20;;
7841;SDS011;3966;51.052;13.820;2023-06-19T13:14:57;0.15;;;0.15;;
7841;SDS011;3966;51.052;13.820;2023-06-19T13:17:23;0.10;;;0.10;;
7841;SDS011;3966;51.052;13.820;2023-06-19T13:19:49;0.20;;;0.20;;
7841;SDS011;3966;51.052;13.820;2023-06-19T13:22:14;0.10;;;0.10;;
7841;SDS011;3966;51.052;13.820;2023-06-19T13:24:40;0.20;;;0.20;;
7841;SDS011;3966;51.052;13.820;2023-06-19T13:27:06;0.10;;;0.10;;
7841;SDS011;3966;51.052;13.820;2023-06-19T13:29:31;0.13;;;0.13;;
7841;SDS011;3966;51.052;13.820;2023-06-19T13:31:57;0.10;;;0.10;;
7841;SDS011;3966;51.052;13.820;2023-06-19T13:34:23;0.20;;;0.20;;
7841;SDS011;3966;51.052;13.820;2023-06-19T13:36:48;0.20;;;0.20;;
7841;SDS011;3966;51.052;13.820;2023-06-19T13:39:14;0.20;;;0.20;;
7841;SDS011;3966;51.052;13.820;2023-06-19T13:41:40;0.10;;;0.10;;
7841;SDS011;3966;51.052;13.820;2023-06-19T13:44:06;0.15;;;0.15;;
7841;SDS011;3966;51.052;13.820;2023-06-19T13:46:31;0.13;;;0.13;;
7841;SDS011;3966;51.052;13.820;2023-06-19T13:48:57;0.20;;;0.20;;
7841;SDS011;3966;51.052;13.820;2023-06-19T13:51:23;0.20;;;0.20;;
7841;SDS011;3966;51.052;13.820;2023-06-19T13:53:49;0.20;;;0.20;;
7841;SDS011;3966;51.052;13.820;2023-06-19T13:56:16;0.20;;;0.20;;
7841;SDS011;3966;51.052;13.820;2023-06-19T13:58:42;0.20;;;0.20;;
7841;SDS011;3966;51.052;13.820;2023-06-19T14:01:07;0.20;;;0.20;;
7841;SDS011;3966;51.052;13.820;2023-06-19T14:03:35;0.20;;;0.20;;
7841;SDS011;3966;51.052;13.820;2023-06-19T14:06:01;0.20;;;0.20;;
7841;SDS011;3966;51.052;13.820;2023-06-19T14:08:27;0.20;;;0.20;;
7841;SDS011;3966;51.052;13.820;2023-06-19T14:10:54;0.20;;;0.20;;
7841;SDS011;3966;51.052;13.820;2023-06-19T14:13:20;0.20;;;0.20;;
7841;SDS011;3966;51.052;13.820;2023-06-19T14:15:46;0.20;;;0.20;;
7841;SDS011;3966;51.052;13.820;2023-06-19T14:18:11;0.20;;;0.20;;
7841;SDS011;3966;51.052;13.820;2023-06-19T14:20:37;0.20;;;0.20;;
7841;SDS011;3966;51.052;13.820;2023-06-19T14:23:03;0.20;;;0.20;;
7841;SDS011;3966;51.052;13.820;2023-06-19T14:25:29;0.20;;;0.20;;
7841;SDS011;3966;51.052;13.820;2023-06-19T14:27:54;0.20;;;0.20;;
7841;SDS011;3966;51.052;13.820;2023-06-19T14:30:20;0.20;;;0.20;;
7841;SDS011;3966;51.052;13.820;2023-06-19T14:32:47;0.10;;;0.10;;
7841;SDS011;3966;51.052;13.820;2023-06-19T14:35:13;0.20;;;0.20;;
7841;SDS011;3966;51.052;13.820;2023-06-19T14:37:38;0.20;;;0.20;;
7841;SDS011;3966;51.052;13.820;2023-06-19T14:40:04;0.20;;;0.20;;
7841;SDS011;3966;51.052;13.820;2023-06-19T14:42:31;0.20;;;0.20;;
7841;SDS011;3966;51.052;13.820;2023-06-19T14:44:56;0.20;;;0.20;;
7841;SDS011;3966;51.052;13.820;2023-06-19T14:47:22;0.20;;;0.20;;
7841;SDS011;3966;51.052;13.820;2023-06-19T14:49:49;0.20;;;0.20;;
7841;SDS011;3966;51.052;13.820;2023-06-19T14:52:14;0.20;;;0.20;;
7841;SDS011;3966;51.052;13.820;2023-06-19T14:54:41;0.20;;;0.20;;
7841;SDS011;3966;51.052;13.820;2023-06-19T14:57:07;0.20;;;0.20;;
7841;SDS011;3966;51.052;13.820;2023-06-19T14:59:33;0.20;;;0.20;;
7841;SDS011;3966;51.052;13.820;2023-06-19T15:01:59;0.20;;;0.20;;
7841;SDS011;3966;51.052;13.820;2023-06-19T15:04:24;0.20;;;0.20;;
7841;SDS011;3966;51.052;13.820;2023-06-19T15:06:50;0.20;;;0.20;;
7841;SDS011;3966;51.052;13.820;2023-06-19T15:09:15;0.10;;;0.10;;
7841;SDS011;3966;51.052;13.820;2023-06-19T15:11:42;0.20;;;0.20;;